createdAt,value
2018-07-07T00:00:34.701Z,11.90
2018-07-07T00:03:03.898Z,11.80
2018-07-07T00:05:33.113Z,11.33
2018-07-07T00:08:02.278Z,11.50
2018-07-07T00:10:31.469Z,11.20
2018-07-07T00:13:00.669Z,12.23
2018-07-07T00:15:29.853Z,12.77
2018-07-07T00:17:58.976Z,13.13
2018-07-07T00:20:28.197Z,11.60
2018-07-07T00:22:57.145Z,11.53
2018-07-07T00:25:26.449Z,12.70
2018-07-07T00:27:55.722Z,13.60
2018-07-07T00:30:25.261Z,15.83
2018-07-07T00:32:54.230Z,14.27
2018-07-07T00:35:23.345Z,12.33
2018-07-07T00:37:52.542Z,12.83
2018-07-07T00:40:22.025Z,13.00
2018-07-07T00:42:51.081Z,12.77
2018-07-07T00:45:20.136Z,12.27
2018-07-07T00:47:48.841Z,13.07
2018-07-07T00:50:17.545Z,12.67
2018-07-07T00:52:46.266Z,11.50
2018-07-07T00:55:15.424Z,13.90
2018-07-07T00:57:44.109Z,13.23
2018-07-07T01:00:12.845Z,14.33
2018-07-07T01:02:41.645Z,12.60
2018-07-07T01:05:20.169Z,11.50
2018-07-07T01:07:49.316Z,11.67
2018-07-07T01:10:18.601Z,11.53
2018-07-07T01:12:47.900Z,12.23
2018-07-07T01:15:17.105Z,13.33
2018-07-07T01:17:46.284Z,11.70
2018-07-07T01:20:15.610Z,12.23
2018-07-07T01:22:44.782Z,16.93
2018-07-07T01:25:13.982Z,13.30
2018-07-07T01:27:43.265Z,13.40
2018-07-07T01:30:12.465Z,15.23
2018-07-07T01:32:41.689Z,13.97
2018-07-07T01:35:10.961Z,14.13
2018-07-07T01:37:40.188Z,14.30
2018-07-07T01:40:09.377Z,13.50
2018-07-07T01:42:38.708Z,13.80
2018-07-07T01:45:07.799Z,13.27
2018-07-07T01:47:36.981Z,13.53
2018-07-07T01:50:05.982Z,12.97
2018-07-07T01:52:35.162Z,12.00
2018-07-07T01:55:04.357Z,12.67
2018-07-07T01:57:33.677Z,13.83
2018-07-07T02:00:02.852Z,14.97
2018-07-07T02:02:32.021Z,13.43
2018-07-07T02:05:01.138Z,12.43
2018-07-07T02:07:30.618Z,12.73
2018-07-07T02:09:59.769Z,12.27
2018-07-07T02:12:29.042Z,12.63
2018-07-07T02:14:58.277Z,12.00
2018-07-07T02:17:27.341Z,12.60
2018-07-07T02:19:56.539Z,11.70
2018-07-07T02:22:25.837Z,12.73
2018-07-07T02:24:55.139Z,10.73
2018-07-07T02:27:24.989Z,11.73
2018-07-07T02:29:54.625Z,11.30
2018-07-07T02:32:23.761Z,14.17
2018-07-07T02:34:52.999Z,11.23
2018-07-07T02:37:22.257Z,12.00
2018-07-07T02:39:51.589Z,11.50
2018-07-07T02:42:20.753Z,11.40
2018-07-07T02:44:49.768Z,11.07
2018-07-07T02:47:19.054Z,11.83
2018-07-07T02:49:48.354Z,12.50
2018-07-07T02:52:17.579Z,13.07
2018-07-07T02:54:46.655Z,14.33
2018-07-07T02:57:15.855Z,12.53
2018-07-07T02:59:45.039Z,11.60
2018-07-07T03:02:14.351Z,13.23
2018-07-07T03:04:43.553Z,10.80
2018-07-07T03:07:12.734Z,11.43
2018-07-07T03:09:41.932Z,13.13
2018-07-07T03:12:11.136Z,12.07
2018-07-07T03:14:40.331Z,11.90
2018-07-07T03:17:09.526Z,12.80
2018-07-07T03:19:38.742Z,17.53
2018-07-07T03:22:08.065Z,10.03
2018-07-07T03:24:37.238Z,11.67
2018-07-07T03:27:06.402Z,12.23
2018-07-07T03:29:35.705Z,11.50
2018-07-07T03:32:04.913Z,10.80
2018-07-07T03:34:34.129Z,10.80
2018-07-07T03:37:02.827Z,10.90
2018-07-07T03:39:31.556Z,10.40
2018-07-07T03:42:00.274Z,8.70
2018-07-07T03:44:28.985Z,8.07
2018-07-07T03:46:57.694Z,6.97
2018-07-07T03:49:26.442Z,6.97
2018-07-07T03:51:55.216Z,6.40
2018-07-07T03:54:23.935Z,5.83
2018-07-07T03:56:52.638Z,6.03
2018-07-07T03:59:21.329Z,5.80
2018-07-07T04:01:50.074Z,5.00
2018-07-07T04:04:18.828Z,5.80
2018-07-07T04:06:47.531Z,5.87
2018-07-07T04:09:16.245Z,6.23
2018-07-07T04:11:45.041Z,5.17
2018-07-07T04:14:13.759Z,6.90
2018-07-07T04:16:42.525Z,4.80
2018-07-07T04:19:11.226Z,4.07
2018-07-07T04:21:39.959Z,5.40
2018-07-07T04:24:08.693Z,4.60
2018-07-07T04:26:37.385Z,5.90
2018-07-07T04:29:06.071Z,6.37
2018-07-07T04:31:34.902Z,6.40
2018-07-07T04:34:03.782Z,4.73
2018-07-07T04:36:32.518Z,5.77
2018-07-07T04:39:01.205Z,4.60
2018-07-07T04:41:29.941Z,4.17
2018-07-07T04:43:58.923Z,4.17
2018-07-07T04:46:28.079Z,4.03
2018-07-07T04:48:57.390Z,5.13
2018-07-07T04:51:26.565Z,5.90
2018-07-07T04:53:55.656Z,4.50
2018-07-07T04:56:24.864Z,4.53
2018-07-07T04:58:54.090Z,4.90
2018-07-07T05:01:23.257Z,4.10
2018-07-07T05:03:52.309Z,4.60
2018-07-07T05:06:21.233Z,5.10
2018-07-07T05:08:50.341Z,6.50
2018-07-07T05:11:19.402Z,7.33
2018-07-07T05:13:48.533Z,4.90
2018-07-07T05:16:17.730Z,5.63
2018-07-07T05:18:46.992Z,5.53
2018-07-07T05:21:15.687Z,4.03
2018-07-07T05:23:44.689Z,4.10
2018-07-07T05:26:13.708Z,4.00
2018-07-07T05:28:42.897Z,4.20
2018-07-07T05:31:12.133Z,7.90
2018-07-07T05:33:41.109Z,3.30
2018-07-07T05:36:10.180Z,3.80
2018-07-07T05:38:39.316Z,3.90
2018-07-07T05:41:08.582Z,3.20
2018-07-07T05:43:37.709Z,4.53
2018-07-07T05:46:06.773Z,4.63
2018-07-07T05:48:36.076Z,3.37
2018-07-07T05:51:05.168Z,5.37
2018-07-07T05:53:34.286Z,5.93
2018-07-07T05:56:03.512Z,4.37
2018-07-07T05:58:32.606Z,5.53
2018-07-07T06:01:01.584Z,4.50
2018-07-07T06:03:30.574Z,4.80
2018-07-07T06:05:59.540Z,5.23
2018-07-07T06:08:29.195Z,4.97
2018-07-07T06:10:58.179Z,4.33
2018-07-07T06:13:27.353Z,11.13
2018-07-07T06:15:56.538Z,8.03
2018-07-07T06:18:25.904Z,4.53
2018-07-07T06:20:55.180Z,4.70
2018-07-07T06:23:24.384Z,4.40
2018-07-07T06:25:53.370Z,6.30
2018-07-07T06:28:22.455Z,5.57
2018-07-07T06:30:51.237Z,4.00
2018-07-07T06:33:19.953Z,5.00
2018-07-07T06:35:48.993Z,4.60
2018-07-07T06:38:18.401Z,5.33
2018-07-07T06:40:47.588Z,3.63
2018-07-07T06:43:16.638Z,4.22
2018-07-07T06:45:45.865Z,4.97
2018-07-07T06:48:14.988Z,4.80
2018-07-07T06:50:44.221Z,3.75
2018-07-07T06:53:13.376Z,3.50
2018-07-07T06:55:42.633Z,3.47
2018-07-07T06:58:11.782Z,3.50
2018-07-07T07:00:40.981Z,4.05
2018-07-07T07:03:10.198Z,4.00
2018-07-07T07:05:39.240Z,3.47
2018-07-07T07:08:08.543Z,3.70
2018-07-07T07:10:37.569Z,3.62
2018-07-07T07:13:06.825Z,4.00
2018-07-07T07:15:35.878Z,3.55
2018-07-07T07:18:04.959Z,3.92
2018-07-07T07:20:34.082Z,4.10
2018-07-07T07:23:03.335Z,3.70
2018-07-07T07:25:32.371Z,3.83
2018-07-07T07:28:01.488Z,2.83
2018-07-07T07:30:30.650Z,3.10
2018-07-07T07:32:59.357Z,3.27
2018-07-07T07:35:28.093Z,3.02
2018-07-07T07:37:56.837Z,2.70
2018-07-07T07:40:25.614Z,3.00
2018-07-07T07:42:54.334Z,3.30
2018-07-07T07:45:23.034Z,2.90
2018-07-07T07:47:51.732Z,3.35
2018-07-07T07:50:20.470Z,4.10
2018-07-07T07:52:49.268Z,3.33
2018-07-07T07:55:17.958Z,4.20
2018-07-07T07:57:46.661Z,4.15
2018-07-07T08:00:15.374Z,2.92
2018-07-07T08:02:44.057Z,3.22
2018-07-07T08:05:12.793Z,3.22
2018-07-07T08:07:41.490Z,4.22
2018-07-07T08:10:10.169Z,3.30
2018-07-07T08:12:39.032Z,2.77
2018-07-07T08:15:07.738Z,3.70
2018-07-07T08:17:36.465Z,2.65
2018-07-07T08:20:05.294Z,2.47
2018-07-07T08:22:34.030Z,2.72
2018-07-07T08:25:02.722Z,2.17
2018-07-07T08:27:31.413Z,4.05
2018-07-07T08:30:00.165Z,2.22
2018-07-07T08:32:28.887Z,2.02
2018-07-07T08:34:57.583Z,3.40
2018-07-07T08:37:26.278Z,4.60
2018-07-07T08:39:55.005Z,3.00
2018-07-07T08:42:23.753Z,5.33
2018-07-07T08:44:52.458Z,3.30
2018-07-07T08:47:21.762Z,3.50
2018-07-07T08:49:51.277Z,3.40
2018-07-07T08:52:20.470Z,4.60
2018-07-07T08:54:49.421Z,3.67
2018-07-07T08:57:18.454Z,3.43
2018-07-07T08:59:47.437Z,3.70
2018-07-07T09:02:16.761Z,2.80
2018-07-07T09:04:46.838Z,2.87
2018-07-07T09:07:15.962Z,2.70
2018-07-07T09:09:45.185Z,2.40
2018-07-07T09:12:14.309Z,2.40
2018-07-07T09:14:43.047Z,5.87
2018-07-07T09:17:11.995Z,4.12
2018-07-07T09:19:41.250Z,2.75
2018-07-07T09:22:10.757Z,2.45
2018-07-07T09:24:40.125Z,2.40
2018-07-07T09:27:09.409Z,2.45
2018-07-07T09:29:38.602Z,2.40
2018-07-07T09:32:07.742Z,2.50
2018-07-07T09:34:36.969Z,2.10
2018-07-07T09:37:05.926Z,2.80
2018-07-07T09:39:36.026Z,3.10
2018-07-07T09:42:05.162Z,2.47
2018-07-07T09:44:34.244Z,2.98
2018-07-07T09:47:03.269Z,3.42
2018-07-07T09:49:32.434Z,3.20
2018-07-07T09:52:01.173Z,5.17
2018-07-07T09:54:29.916Z,3.75
2018-07-07T09:56:58.741Z,2.42
2018-07-07T09:59:27.614Z,2.95
2018-07-07T10:01:56.945Z,2.72
2018-07-07T10:04:25.674Z,2.80
2018-07-07T10:06:54.518Z,3.27
2018-07-07T10:09:23.281Z,2.65
2018-07-07T10:11:52.211Z,2.75
2018-07-07T10:14:20.954Z,2.90
2018-07-07T10:16:49.689Z,3.17
2018-07-07T10:19:18.503Z,4.75
2018-07-07T10:21:47.201Z,2.20
2018-07-07T10:24:16.076Z,2.27
2018-07-07T10:26:45.169Z,2.10
2018-07-07T10:29:14.098Z,1.98
2018-07-07T10:31:42.998Z,2.42
2018-07-07T10:34:11.729Z,2.40
2018-07-07T10:36:40.486Z,2.83
2018-07-07T10:39:09.203Z,2.08
2018-07-07T10:41:38.705Z,1.62
2018-07-07T10:44:07.617Z,1.70
2018-07-07T10:46:36.680Z,2.67
2018-07-07T10:49:05.793Z,2.30
2018-07-07T10:51:34.517Z,2.30
2018-07-07T10:54:03.209Z,2.50
2018-07-07T10:56:31.914Z,2.60
2018-07-07T10:59:00.661Z,3.50
2018-07-07T11:01:29.369Z,2.92
2018-07-07T11:03:58.338Z,2.27
2018-07-07T11:06:27.538Z,1.90
2018-07-07T11:08:56.534Z,2.12
2018-07-07T11:11:25.682Z,2.72
2018-07-07T11:13:54.925Z,2.30
2018-07-07T11:16:24.137Z,2.45
2018-07-07T11:18:53.325Z,3.37
2018-07-07T11:21:22.522Z,2.70
2018-07-07T11:23:51.590Z,2.22
2018-07-07T11:26:20.530Z,2.80
2018-07-07T11:28:49.721Z,2.10
2018-07-07T11:31:18.413Z,2.35
2018-07-07T11:33:47.128Z,1.50
2018-07-07T11:36:15.869Z,2.37
2018-07-07T11:38:44.677Z,2.67
2018-07-07T11:41:16.722Z,3.17
2018-07-07T11:43:45.433Z,4.72
2018-07-07T11:46:14.603Z,5.12
2018-07-07T11:48:43.364Z,4.72
2018-07-07T11:51:12.231Z,5.23
2018-07-07T11:53:40.966Z,6.72
2018-07-07T11:56:09.678Z,5.37
2018-07-07T11:58:38.593Z,4.62
2018-07-07T12:01:07.399Z,5.90
2018-07-07T12:03:36.671Z,3.95
2018-07-07T12:06:05.942Z,4.78
2018-07-07T12:08:34.969Z,4.50
2018-07-07T12:11:04.094Z,4.93
2018-07-07T12:13:33.083Z,4.63
2018-07-07T12:16:01.790Z,4.30
2018-07-07T12:18:30.805Z,5.10
2018-07-07T12:21:00.246Z,4.80
2018-07-07T12:23:29.577Z,5.20
2018-07-07T12:25:58.622Z,4.17
2018-07-07T12:28:27.432Z,5.77
2018-07-07T12:30:56.517Z,5.00
2018-07-07T12:33:25.577Z,3.90
2018-07-07T12:35:54.781Z,6.37
2018-07-07T12:38:23.569Z,5.30
2018-07-07T12:40:53.000Z,5.47
2018-07-07T12:43:22.096Z,5.03
2018-07-07T12:45:51.269Z,4.80
2018-07-07T12:48:20.582Z,4.83
2018-07-07T12:50:49.768Z,5.77
2018-07-07T12:53:18.862Z,5.43
2018-07-07T12:55:48.065Z,4.80
2018-07-07T12:58:17.055Z,5.47
2018-07-07T13:00:46.184Z,5.57
2018-07-07T13:03:15.273Z,5.70
2018-07-07T13:05:44.247Z,5.17
2018-07-07T13:08:13.442Z,6.10
2018-07-07T13:10:42.628Z,6.40
2018-07-07T13:13:12.063Z,6.13
2018-07-07T13:15:41.175Z,5.07
2018-07-07T13:18:10.355Z,5.20
2018-07-07T13:20:39.551Z,6.43
2018-07-07T13:23:08.481Z,6.20
2018-07-07T13:25:37.660Z,4.80
2018-07-07T13:28:06.937Z,7.93
2018-07-07T13:30:36.129Z,6.57
2018-07-07T13:33:05.365Z,6.90
2018-07-07T13:35:34.636Z,7.40
2018-07-07T13:38:03.890Z,5.40
2018-07-07T13:40:33.011Z,6.33
2018-07-07T13:43:02.221Z,8.90
2018-07-07T13:45:31.436Z,7.60
2018-07-07T13:48:00.509Z,7.80
2018-07-07T13:50:29.629Z,6.63
2018-07-07T13:52:58.990Z,7.07
2018-07-07T13:55:28.111Z,7.97
2018-07-07T13:57:57.292Z,7.00
2018-07-07T14:00:26.505Z,9.33
2018-07-07T14:02:55.522Z,7.33
2018-07-07T14:05:24.797Z,7.50
2018-07-07T14:07:54.094Z,9.30
2018-07-07T14:10:23.153Z,9.73
2018-07-07T14:12:52.199Z,10.73
2018-07-07T14:15:21.186Z,11.97
2018-07-07T14:17:50.318Z,10.63
2018-07-07T14:20:19.515Z,13.93
2018-07-07T14:22:48.707Z,11.23
2018-07-07T14:25:17.889Z,11.57
2018-07-07T14:27:46.986Z,8.13
2018-07-07T14:30:16.091Z,10.97
2018-07-07T14:32:45.182Z,11.17
2018-07-07T14:35:14.360Z,10.10
2018-07-07T14:37:43.919Z,15.50
2018-07-07T14:40:12.965Z,12.80
2018-07-07T14:42:50.359Z,18.00
2018-07-07T14:45:22.196Z,14.87
2018-07-07T14:47:52.423Z,14.10
2018-07-07T14:50:21.858Z,12.70
2018-07-07T14:52:51.076Z,12.47
2018-07-07T14:55:21.634Z,10.93
2018-07-07T14:57:50.681Z,13.20
2018-07-07T15:00:21.257Z,11.90
2018-07-07T15:02:51.562Z,11.10
2018-07-07T15:05:20.636Z,14.73
2018-07-07T15:07:50.001Z,13.23
2018-07-07T15:10:19.370Z,12.40
2018-07-07T15:12:49.374Z,11.83
2018-07-07T15:15:18.562Z,12.60
2018-07-07T15:17:47.991Z,12.20
2018-07-07T15:20:17.794Z,14.23
2018-07-07T15:22:47.042Z,13.10
2018-07-07T15:25:16.349Z,10.40
2018-07-07T15:27:45.566Z,11.20
2018-07-07T15:30:14.745Z,13.27
2018-07-07T15:32:44.022Z,18.70
2018-07-07T15:35:13.256Z,23.90
2018-07-07T15:37:42.447Z,13.30
2018-07-07T15:40:11.541Z,15.63
2018-07-07T15:42:40.678Z,13.00
2018-07-07T15:45:09.951Z,12.80
2018-07-07T15:47:39.126Z,13.30
2018-07-07T15:50:08.317Z,11.70
2018-07-07T15:52:37.706Z,13.47
2018-07-07T15:55:06.826Z,12.90
2018-07-07T15:57:35.898Z,11.80
2018-07-07T16:00:05.709Z,10.20
2018-07-07T16:02:34.837Z,12.50
2018-07-07T16:05:04.047Z,12.03
2018-07-07T16:07:33.145Z,14.17
2018-07-07T16:10:02.553Z,12.30
2018-07-07T16:12:31.758Z,10.50
2018-07-07T16:15:00.945Z,11.67
2018-07-07T16:17:30.229Z,12.30
2018-07-07T16:19:59.303Z,13.17
2018-07-07T16:22:28.729Z,14.60
2018-07-07T16:24:57.945Z,14.77
2018-07-07T16:27:27.061Z,15.10
2018-07-07T16:29:56.390Z,13.40
2018-07-07T16:32:25.594Z,14.10
2018-07-07T16:34:54.761Z,12.47
2018-07-07T16:37:24.124Z,12.47
2018-07-07T16:39:53.358Z,13.23
2018-07-07T16:42:23.225Z,16.67
2018-07-07T16:44:52.524Z,15.40
2018-07-07T16:47:21.987Z,14.90
2018-07-07T16:49:50.958Z,14.90
2018-07-07T16:52:20.233Z,14.03
2018-07-07T16:54:49.756Z,14.60
2018-07-07T16:57:19.045Z,12.60
2018-07-07T16:59:48.551Z,14.20
2018-07-07T17:02:18.471Z,13.10
2018-07-07T17:04:47.452Z,12.27
2018-07-07T17:07:16.610Z,11.90
2018-07-07T17:09:45.362Z,12.57
2018-07-07T17:12:14.641Z,11.10
2018-07-07T17:14:43.849Z,10.50
2018-07-07T17:17:13.044Z,11.50
2018-07-07T17:19:42.225Z,12.63
2018-07-07T17:22:11.468Z,14.63
2018-07-07T17:24:40.731Z,13.43
2018-07-07T17:27:10.032Z,13.80
2018-07-07T17:29:39.257Z,11.93
2018-07-07T17:32:08.820Z,12.33
2018-07-07T17:34:38.144Z,12.00
2018-07-07T17:37:07.425Z,12.03
2018-07-07T17:39:36.645Z,13.13
2018-07-07T17:42:05.790Z,13.50
2018-07-07T17:44:34.969Z,12.40
2018-07-07T17:47:04.231Z,10.83
2018-07-07T17:49:33.602Z,11.93
2018-07-07T17:52:02.822Z,11.50
2018-07-07T17:54:32.049Z,14.10
2018-07-07T17:57:01.434Z,15.70
2018-07-07T17:59:30.433Z,14.40
2018-07-07T18:01:59.525Z,14.10
2018-07-07T18:04:28.739Z,14.57
2018-07-07T18:06:58.010Z,15.47
2018-07-07T18:09:27.249Z,13.20
2018-07-07T18:11:56.360Z,15.93
2018-07-07T18:14:25.502Z,20.40
2018-07-07T18:16:54.816Z,15.30
2018-07-07T18:19:24.022Z,13.43
2018-07-07T18:21:53.197Z,14.03
2018-07-07T18:24:22.505Z,12.90
2018-07-07T18:26:51.718Z,13.53
2018-07-07T18:29:20.809Z,15.17
2018-07-07T18:31:49.928Z,13.57
2018-07-07T18:34:19.201Z,13.60
2018-07-07T18:36:48.397Z,13.47
2018-07-07T18:39:17.669Z,14.63
2018-07-07T18:41:47.022Z,13.33
2018-07-07T18:44:16.382Z,10.97
2018-07-07T18:46:45.138Z,13.37
2018-07-07T18:49:14.291Z,14.20
2018-07-07T18:51:43.778Z,14.30
2018-07-07T18:54:13.416Z,14.37
2018-07-07T18:56:42.188Z,17.00
2018-07-07T18:59:11.463Z,16.60
2018-07-07T19:01:40.782Z,18.47
2018-07-07T19:04:10.045Z,15.17
2018-07-07T19:06:39.737Z,14.73
2018-07-07T19:09:08.832Z,14.90
2018-07-07T19:11:38.013Z,15.67
2018-07-07T19:14:07.090Z,13.40
2018-07-07T19:16:36.013Z,12.07
2018-07-07T19:19:04.966Z,17.50
2018-07-07T19:21:38.695Z,17.00
2018-07-07T19:24:12.600Z,15.47
2018-07-07T19:26:46.638Z,20.37
2018-07-07T19:29:15.480Z,19.63
2018-07-07T19:31:49.346Z,22.27
2018-07-07T19:34:23.335Z,21.10
2018-07-07T19:36:57.206Z,18.70
2018-07-07T19:39:26.174Z,19.93
2018-07-07T19:41:54.992Z,22.43
2018-07-07T19:44:24.299Z,23.50
2018-07-07T19:46:53.150Z,21.23
2018-07-07T19:49:22.028Z,21.70
2018-07-07T19:51:50.761Z,21.23
2018-07-07T19:54:19.525Z,17.93
2018-07-07T19:56:48.259Z,18.60
2018-07-07T19:59:17.210Z,18.50
2018-07-07T20:01:45.981Z,20.60
2018-07-07T20:04:14.715Z,22.77
2018-07-07T20:06:43.474Z,21.23
2018-07-07T20:09:12.218Z,22.10
2018-07-07T20:11:41.090Z,21.87
2018-07-07T20:14:09.814Z,19.80
2018-07-07T20:16:49.570Z,20.77
2018-07-07T20:19:21.334Z,12.13
2018-07-07T20:22:07.040Z,14.07
2018-07-07T20:24:39.547Z,14.97
2018-07-07T20:27:14.179Z,14.93
2018-07-07T20:29:42.939Z,12.90
2018-07-07T20:32:16.737Z,14.00
2018-07-07T20:34:45.520Z,14.57
2018-07-07T20:37:14.274Z,12.60
2018-07-07T20:39:43.238Z,11.70
2018-07-07T20:42:12.078Z,11.47
2018-07-07T20:44:40.893Z,13.37
2018-07-07T20:47:10.330Z,12.53
2018-07-07T20:49:39.081Z,19.67
2018-07-07T20:52:07.826Z,16.10
2018-07-07T20:54:36.565Z,16.80
2018-07-07T20:57:05.358Z,12.37
2018-07-07T20:59:34.106Z,13.60
2018-07-07T21:02:03.036Z,13.37
2018-07-07T21:04:31.910Z,18.30
2018-07-07T21:07:00.663Z,15.13
2018-07-07T21:09:29.511Z,18.30
2018-07-07T21:11:58.238Z,14.17
2018-07-07T21:14:27.026Z,16.50
2018-07-07T21:16:55.753Z,18.10
2018-07-07T21:19:24.477Z,18.90
2018-07-07T21:21:53.391Z,16.77
2018-07-07T21:24:24.059Z,15.60
2018-07-07T21:26:52.867Z,15.17
2018-07-07T21:29:21.684Z,17.00
2018-07-07T21:31:50.426Z,18.97
2018-07-07T21:34:19.201Z,17.13
2018-07-07T21:36:47.953Z,16.30
2018-07-07T21:39:16.670Z,17.40
2018-07-07T21:41:45.449Z,17.60
2018-07-07T21:44:14.189Z,17.50
2018-07-07T21:46:43.177Z,15.60
2018-07-07T21:49:12.069Z,13.97
2018-07-07T21:51:40.968Z,15.13
2018-07-07T21:54:10.077Z,14.50
2018-07-07T21:56:39.421Z,14.43
2018-07-07T21:59:13.237Z,13.63
2018-07-07T22:01:54.734Z,14.47
2018-07-07T22:04:29.492Z,13.30
2018-07-07T22:07:03.529Z,16.13
2018-07-07T22:09:33.416Z,13.90
2018-07-07T22:12:02.183Z,14.80
2018-07-07T22:14:31.291Z,14.07
2018-07-07T22:17:00.055Z,14.10
2018-07-07T22:19:28.802Z,16.37
2018-07-07T22:22:00.570Z,13.97
2018-07-07T22:24:29.356Z,14.37
2018-07-07T22:27:00.935Z,13.80
2018-07-07T22:29:29.890Z,14.80
2018-07-07T22:31:59.883Z,13.37
2018-07-07T22:34:36.843Z,14.20
2018-07-07T22:37:05.797Z,12.80
2018-07-07T22:39:40.587Z,13.33
2018-07-07T22:42:11.578Z,11.90
2018-07-07T22:44:41.344Z,13.20
2018-07-07T22:47:10.168Z,13.87
2018-07-07T22:49:38.882Z,13.80
2018-07-07T22:52:08.709Z,12.10
2018-07-07T22:54:37.434Z,14.03
2018-07-07T22:57:06.170Z,16.40
2018-07-07T22:59:34.939Z,16.23
2018-07-07T23:02:03.826Z,14.50
2018-07-07T23:04:32.703Z,15.00
2018-07-07T23:07:01.498Z,13.03
2018-07-07T23:09:30.229Z,14.07
2018-07-07T23:11:58.987Z,13.27
2018-07-07T23:14:27.783Z,12.20
2018-07-07T23:17:04.832Z,13.50
2018-07-07T23:19:33.553Z,13.43
2018-07-07T23:22:02.294Z,14.67
2018-07-07T23:24:31.034Z,11.73
2018-07-07T23:26:59.787Z,12.90
2018-07-07T23:29:28.530Z,13.80
2018-07-07T23:31:57.249Z,12.90
2018-07-07T23:34:25.965Z,12.70
2018-07-07T23:36:54.901Z,12.17
2018-07-07T23:39:23.627Z,14.40
2018-07-07T23:41:52.394Z,10.83
2018-07-07T23:44:21.114Z,10.30
2018-07-07T23:46:49.859Z,12.13
2018-07-07T23:49:18.655Z,10.27
2018-07-07T23:51:47.374Z,10.70
2018-07-07T23:54:16.154Z,10.27
2018-07-07T23:56:45.023Z,10.30
2018-07-07T23:59:13.753Z,10.40
